createdAt,value
2022-11-29T00:02:07.300Z,69.04
2022-11-29T00:04:33.600Z,68.28
2022-11-29T00:06:59.808Z,67.04
2022-11-29T00:09:26.020Z,66.07
2022-11-29T00:11:52.276Z,65.73
2022-11-29T00:14:18.506Z,65.89
2022-11-29T00:16:44.804Z,66.51
2022-11-29T00:19:11.148Z,67.55
2022-11-29T00:21:37.410Z,67.64
2022-11-29T00:24:03.634Z,67.11
2022-11-29T00:26:29.887Z,67.08
2022-11-29T00:28:56.108Z,67.40
2022-11-29T00:31:22.417Z,66.36
2022-11-29T00:33:48.702Z,66.29
2022-11-29T00:36:14.935Z,65.69
2022-11-29T00:38:41.244Z,65.91
2022-11-29T00:41:07.476Z,66.63
2022-11-29T00:43:33.723Z,66.59
2022-11-29T00:45:59.978Z,70.15
2022-11-29T00:48:26.307Z,69.26
2022-11-29T00:50:52.525Z,70.17
2022-11-29T00:53:18.777Z,73.19
2022-11-29T00:55:44.999Z,76.84
2022-11-29T00:58:11.217Z,77.36
2022-11-29T01:00:37.465Z,75.33
2022-11-29T01:03:03.680Z,76.04
2022-11-29T01:05:29.917Z,76.44
2022-11-29T01:07:56.226Z,76.73
2022-11-29T01:10:22.483Z,75.66
2022-11-29T01:12:48.713Z,75.62
2022-11-29T01:15:14.940Z,76.43
2022-11-29T01:17:41.178Z,79.14
2022-11-29T01:20:07.394Z,78.24
2022-11-29T01:22:33.613Z,80.42
2022-11-29T01:24:59.857Z,78.33
2022-11-29T01:27:26.091Z,81.37
2022-11-29T01:29:52.323Z,80.92
2022-11-29T01:32:18.581Z,80.03
2022-11-29T01:34:45.044Z,81.39
2022-11-29T01:37:11.443Z,81.39
2022-11-29T01:39:37.664Z,83.21
2022-11-29T01:42:03.895Z,83.80
2022-11-29T01:44:30.144Z,85.04
2022-11-29T01:46:56.442Z,83.00
2022-11-29T01:49:22.848Z,84.80
2022-11-29T01:51:49.079Z,85.52
2022-11-29T01:54:15.326Z,83.10
2022-11-29T01:56:41.555Z,86.35
2022-11-29T01:59:07.846Z,83.59
2022-11-29T02:01:34.169Z,83.43
2022-11-29T02:04:00.440Z,84.48
2022-11-29T02:06:26.684Z,89.48
2022-11-29T02:08:52.934Z,88.82
2022-11-29T02:11:19.169Z,89.73
2022-11-29T02:13:45.395Z,88.93
2022-11-29T02:16:11.660Z,89.29
2022-11-29T02:18:37.920Z,85.38
2022-11-29T02:21:04.150Z,83.87
2022-11-29T02:23:30.377Z,85.05
2022-11-29T02:25:56.592Z,86.28
2022-11-29T02:28:22.838Z,89.43
2022-11-29T02:30:49.113Z,87.26
2022-11-29T02:33:15.351Z,87.85
2022-11-29T02:35:41.577Z,86.49
2022-11-29T02:38:07.808Z,84.50
2022-11-29T02:40:34.053Z,85.65
2022-11-29T02:43:00.321Z,84.29
2022-11-29T02:45:28.126Z,84.83
2022-11-29T02:47:54.378Z,87.30
2022-11-29T02:50:20.609Z,89.04
2022-11-29T02:52:46.886Z,85.40
2022-11-29T02:55:13.100Z,85.45
2022-11-29T02:57:39.336Z,86.12
2022-11-29T03:00:05.580Z,86.76
2022-11-29T03:02:31.852Z,85.88
2022-11-29T03:04:58.115Z,87.77
2022-11-29T03:07:24.392Z,85.11
2022-11-29T03:09:50.670Z,88.34
2022-11-29T03:12:16.899Z,85.14
2022-11-29T03:14:43.457Z,86.32
2022-11-29T03:17:09.984Z,87.31
2022-11-29T03:19:36.207Z,85.54
2022-11-29T03:22:02.452Z,84.70
2022-11-29T03:24:28.685Z,84.08
2022-11-29T03:26:54.971Z,82.50
2022-11-29T03:29:21.319Z,83.32
2022-11-29T03:31:47.620Z,83.81
2022-11-29T03:34:13.906Z,88.41
2022-11-29T03:36:40.155Z,84.49
2022-11-29T03:39:06.367Z,85.49
2022-11-29T03:41:32.589Z,86.56
2022-11-29T03:43:58.807Z,84.00
2022-11-29T03:46:25.077Z,84.16
2022-11-29T03:48:51.341Z,86.67
2022-11-29T03:51:17.570Z,86.56
2022-11-29T03:53:43.791Z,86.54
2022-11-29T03:56:10.007Z,86.33
2022-11-29T03:58:36.236Z,88.44
2022-11-29T04:01:02.473Z,87.05
2022-11-29T04:03:28.726Z,86.22
2022-11-29T04:05:54.965Z,84.32
2022-11-29T04:08:21.351Z,85.96
2022-11-29T04:10:47.571Z,85.46
2022-11-29T04:13:33.997Z,84.90
2022-11-29T04:16:17.347Z,84.27
2022-11-29T04:18:43.641Z,86.50
2022-11-29T04:21:09.859Z,85.30
2022-11-29T04:23:36.099Z,87.14
2022-11-29T04:26:02.340Z,86.52
2022-11-29T04:28:28.576Z,86.94
2022-11-29T04:30:54.834Z,90.64
2022-11-29T04:33:21.062Z,88.46
2022-11-29T04:35:47.278Z,88.97
2022-11-29T04:38:13.493Z,87.99
2022-11-29T04:40:39.713Z,88.18
2022-11-29T04:43:05.945Z,89.19
2022-11-29T04:45:32.195Z,87.42
2022-11-29T04:47:58.432Z,87.22
2022-11-29T04:50:24.652Z,88.34
2022-11-29T04:52:50.881Z,87.45
2022-11-29T04:55:23.779Z,88.48
2022-11-29T04:57:54.038Z,87.07
2022-11-29T05:00:20.271Z,88.10
2022-11-29T05:02:46.584Z,87.52
2022-11-29T05:05:12.830Z,86.83
2022-11-29T05:07:39.115Z,88.99
2022-11-29T05:10:05.402Z,85.94
2022-11-29T05:12:31.656Z,86.63
2022-11-29T05:14:57.875Z,86.71
2022-11-29T05:19:50.635Z,86.88
2022-11-29T05:22:16.871Z,87.71
2022-11-29T05:24:43.443Z,88.62
2022-11-29T05:27:09.942Z,90.33
2022-11-29T05:29:36.215Z,90.68
2022-11-29T05:32:02.466Z,88.28
2022-11-29T05:34:34.568Z,90.18
2022-11-29T05:37:01.291Z,87.43
2022-11-29T05:39:27.541Z,88.03
2022-11-29T05:41:53.795Z,87.97
2022-11-29T05:44:20.017Z,89.57
2022-11-29T05:46:46.290Z,88.14
2022-11-29T05:49:12.554Z,89.12
2022-11-29T05:51:38.772Z,89.01
2022-11-29T05:54:05.012Z,90.01
2022-11-29T05:56:31.262Z,87.78
2022-11-29T05:58:57.481Z,87.10
2022-11-29T06:01:23.733Z,87.96
2022-11-29T06:03:49.982Z,87.74
2022-11-29T06:06:16.226Z,87.57
2022-11-29T06:08:42.505Z,87.69
2022-11-29T06:11:08.724Z,89.06
2022-11-29T06:13:34.964Z,89.79
2022-11-29T06:16:01.297Z,90.53
2022-11-29T06:18:27.665Z,88.65
2022-11-29T06:20:53.998Z,89.32
2022-11-29T06:23:20.234Z,89.73
2022-11-29T06:25:46.488Z,89.31
2022-11-29T06:28:12.729Z,89.40
2022-11-29T06:30:38.956Z,90.10
2022-11-29T06:33:05.184Z,90.73
2022-11-29T06:35:31.436Z,90.07
2022-11-29T06:37:57.685Z,90.98
2022-11-29T06:40:23.936Z,91.21
2022-11-29T06:42:52.512Z,90.22
2022-11-29T06:45:18.739Z,89.78
2022-11-29T06:47:45.005Z,89.41
2022-11-29T06:50:11.244Z,90.90
2022-11-29T06:52:37.486Z,90.56
2022-11-29T06:55:03.722Z,91.72
2022-11-29T06:57:29.955Z,90.29
2022-11-29T06:59:56.200Z,91.33
2022-11-29T07:02:22.494Z,88.31
2022-11-29T07:04:48.980Z,87.78
2022-11-29T07:07:15.526Z,89.06
2022-11-29T07:09:41.824Z,89.42
2022-11-29T07:12:08.058Z,91.10
2022-11-29T07:14:34.289Z,89.55
2022-11-29T07:17:00.529Z,88.33
2022-11-29T07:19:26.780Z,87.66
2022-11-29T07:21:53.020Z,86.95
2022-11-29T07:24:19.334Z,87.43
2022-11-29T07:26:46.602Z,86.60
2022-11-29T07:29:12.901Z,86.78
2022-11-29T07:31:39.205Z,87.74
2022-11-29T07:34:05.485Z,89.68
2022-11-29T07:36:31.733Z,87.70
2022-11-29T07:38:57.994Z,88.01
2022-11-29T07:41:24.265Z,88.36
2022-11-29T07:43:50.496Z,88.33
2022-11-29T07:46:16.765Z,88.75
2022-11-29T07:48:43.042Z,89.36
2022-11-29T07:51:09.340Z,88.69
2022-11-29T07:53:35.601Z,89.59
2022-11-29T07:56:01.867Z,89.44
2022-11-29T07:58:28.165Z,90.71
2022-11-29T08:00:54.500Z,92.76
2022-11-29T08:03:20.837Z,91.67
2022-11-29T08:05:47.118Z,93.20
2022-11-29T08:08:13.389Z,91.19
2022-11-29T08:10:39.626Z,89.85
2022-11-29T08:13:05.868Z,89.00
2022-11-29T08:15:32.114Z,89.66
2022-11-29T08:17:58.357Z,90.43
2022-11-29T08:20:24.674Z,89.02
2022-11-29T08:22:50.985Z,89.88
2022-11-29T08:25:17.421Z,91.64
2022-11-29T08:27:43.709Z,91.29
2022-11-29T08:30:10.013Z,92.02
2022-11-29T08:32:36.401Z,91.52
2022-11-29T08:35:02.654Z,90.21
2022-11-29T08:37:29.071Z,91.67
2022-11-29T08:39:55.364Z,91.91
2022-11-29T08:42:21.698Z,89.08
2022-11-29T08:44:48.092Z,84.96
2022-11-29T08:47:14.461Z,85.59
2022-11-29T08:49:40.719Z,87.99
2022-11-29T08:52:06.953Z,87.98
2022-11-29T08:54:33.201Z,86.88
2022-11-29T08:57:31.510Z,84.90
2022-11-29T08:59:45.702Z,81.11
2022-11-29T09:02:11.976Z,82.34
2022-11-29T09:04:38.220Z,86.90
2022-11-29T09:07:05.672Z,89.81
2022-11-29T09:09:32.058Z,92.15
2022-11-29T09:11:58.318Z,87.81
2022-11-29T09:14:24.578Z,84.71
2022-11-29T09:16:50.847Z,83.97
2022-11-29T09:19:17.125Z,84.89
2022-11-29T09:21:43.390Z,86.51
2022-11-29T09:24:09.633Z,84.55
2022-11-29T09:26:35.885Z,83.37
2022-11-29T09:29:02.142Z,82.61
2022-11-29T09:31:28.461Z,85.38
2022-11-29T09:33:54.725Z,84.43
2022-11-29T09:36:26.557Z,83.00
2022-11-29T09:38:54.613Z,83.84
2022-11-29T09:41:20.914Z,80.99
2022-11-29T09:43:47.149Z,84.68
2022-11-29T09:46:13.445Z,86.60
2022-11-29T09:48:39.828Z,85.20
2022-11-29T09:51:06.062Z,81.55
2022-11-29T09:53:32.323Z,83.34
2022-11-29T09:55:58.622Z,83.03
2022-11-29T09:58:24.946Z,81.18
2022-11-29T10:00:51.219Z,81.53
2022-11-29T10:03:17.548Z,81.55
2022-11-29T10:05:43.864Z,83.55
2022-11-29T10:08:10.116Z,82.04
2022-11-29T10:10:36.387Z,79.35
2022-11-29T10:13:02.663Z,81.54
2022-11-29T10:15:29.219Z,80.86
2022-11-29T10:17:55.639Z,79.60
2022-11-29T10:20:22.067Z,77.96
2022-11-29T10:22:52.308Z,82.69
2022-11-29T10:25:18.910Z,80.61
2022-11-29T10:27:45.218Z,79.39
2022-11-29T10:30:11.475Z,81.40
2022-11-29T10:32:37.712Z,81.12
2022-11-29T10:35:04.076Z,81.01
2022-11-29T10:37:30.339Z,81.40
2022-11-29T10:39:56.609Z,80.71
2022-11-29T10:42:22.958Z,77.88
2022-11-29T10:44:49.199Z,80.15
2022-11-29T10:47:15.432Z,78.97
2022-11-29T10:49:41.661Z,79.91
2022-11-29T10:52:07.922Z,79.81
2022-11-29T10:54:34.209Z,81.04
2022-11-29T10:57:00.474Z,78.45
2022-11-29T10:59:26.742Z,80.50
2022-11-29T11:01:53.033Z,82.39
2022-11-29T11:04:19.442Z,82.20
2022-11-29T11:06:45.712Z,81.08
2022-11-29T11:09:11.933Z,81.91
2022-11-29T11:11:38.192Z,80.94
2022-11-29T11:14:04.430Z,80.85
2022-11-29T11:16:36.793Z,78.14
2022-11-29T11:19:03.766Z,76.73
2022-11-29T11:21:30.052Z,75.88
2022-11-29T11:23:56.290Z,77.27
2022-11-29T11:26:22.522Z,78.20
2022-11-29T11:28:48.801Z,75.85
2022-11-29T11:31:15.079Z,77.94
2022-11-29T11:33:41.379Z,77.12
2022-11-29T11:36:07.629Z,77.10
2022-11-29T11:38:33.909Z,77.36
2022-11-29T11:41:00.146Z,77.70
2022-11-29T11:43:26.414Z,77.02
2022-11-29T11:45:52.733Z,76.67
2022-11-29T11:48:18.999Z,78.09
2022-11-29T11:50:45.216Z,77.16
2022-11-29T11:53:11.508Z,74.43
2022-11-29T11:55:37.743Z,74.35
2022-11-29T11:58:09.801Z,72.86
2022-11-29T12:01:02.351Z,71.95
2022-11-29T12:03:23.120Z,70.88
2022-11-29T12:05:49.417Z,72.87
2022-11-29T12:08:15.763Z,72.99
2022-11-29T12:10:42.075Z,74.13
2022-11-29T12:13:08.335Z,73.06
2022-11-29T12:15:34.681Z,73.33
2022-11-29T12:18:01.381Z,74.71
2022-11-29T12:20:27.629Z,75.01
2022-11-29T12:22:53.884Z,74.35
2022-11-29T12:25:20.166Z,73.60
2022-11-29T12:27:46.409Z,75.94
2022-11-29T12:30:12.777Z,75.15
2022-11-29T12:32:39.080Z,74.58
2022-11-29T12:35:05.329Z,75.29
2022-11-29T12:37:31.587Z,74.16
2022-11-29T12:39:57.844Z,75.69
2022-11-29T12:42:24.087Z,76.08
2022-11-29T12:44:50.337Z,75.26
2022-11-29T12:50:02.810Z,76.96
2022-11-29T12:52:29.064Z,77.78
2022-11-29T12:54:55.425Z,78.25
2022-11-29T12:57:21.815Z,75.55
2022-11-29T12:59:48.095Z,75.95
2022-11-29T13:02:14.399Z,77.54
2022-11-29T13:04:40.735Z,77.46
2022-11-29T13:07:07.064Z,79.38
2022-11-29T13:09:33.325Z,76.90
2022-11-29T13:12:01.026Z,79.71
2022-11-29T13:14:43.863Z,79.82
2022-11-29T13:17:10.559Z,80.85
2022-11-29T13:19:36.834Z,76.12
2022-11-29T13:22:03.097Z,75.66
2022-11-29T13:24:29.360Z,76.77
2022-11-29T13:26:55.604Z,80.85
2022-11-29T13:29:21.845Z,80.55
2022-11-29T13:31:48.099Z,81.40
2022-11-29T13:34:14.367Z,81.62
2022-11-29T13:36:40.649Z,81.24
2022-11-29T13:39:06.946Z,80.13
2022-11-29T13:41:33.308Z,80.05
2022-11-29T13:43:59.609Z,79.87
2022-11-29T13:46:25.856Z,80.59
2022-11-29T13:48:52.118Z,81.57
2022-11-29T13:51:18.361Z,79.76
2022-11-29T13:53:48.794Z,79.16
2022-11-29T13:56:15.794Z,79.37
2022-11-29T13:58:42.071Z,80.06
2022-11-29T14:01:08.346Z,82.67
2022-11-29T14:03:34.596Z,83.81
2022-11-29T14:06:00.854Z,83.18
2022-11-29T14:08:47.733Z,83.40
2022-11-29T14:11:16.228Z,81.57
2022-11-29T14:13:42.540Z,81.71
2022-11-29T14:16:08.908Z,82.38
2022-11-29T14:18:35.199Z,83.29
2022-11-29T14:21:01.564Z,83.34
2022-11-29T14:23:27.792Z,83.14
2022-11-29T14:25:54.129Z,83.23
2022-11-29T14:28:20.366Z,81.89
2022-11-29T14:30:46.600Z,81.74
2022-11-29T14:33:12.871Z,80.98
2022-11-29T14:35:39.092Z,80.47
2022-11-29T14:38:05.331Z,81.04
2022-11-29T14:40:31.578Z,83.17
2022-11-29T14:42:57.828Z,83.43
2022-11-29T14:45:24.072Z,82.08
2022-11-29T14:47:50.420Z,82.05
2022-11-29T14:50:19.336Z,85.11
2022-11-29T14:52:45.582Z,85.03
2022-11-29T14:55:11.928Z,86.34
2022-11-29T14:57:38.198Z,86.57
2022-11-29T15:00:04.446Z,85.25
2022-11-29T15:02:30.760Z,86.30
2022-11-29T15:04:57.036Z,85.88
2022-11-29T15:07:24.632Z,86.48
2022-11-29T15:09:50.944Z,87.27
2022-11-29T15:12:17.195Z,85.62
2022-11-29T15:14:43.797Z,87.88
2022-11-29T15:17:10.318Z,87.54
2022-11-29T15:19:36.584Z,86.73
2022-11-29T15:22:03.058Z,87.65
2022-11-29T15:24:29.272Z,88.40
2022-11-29T15:26:55.539Z,87.67
2022-11-29T15:29:21.803Z,86.67
2022-11-29T15:31:48.051Z,87.61
2022-11-29T15:34:17.274Z,86.06
2022-11-29T15:36:43.722Z,87.98
2022-11-29T15:39:10.050Z,85.01
2022-11-29T15:41:36.370Z,86.45
2022-11-29T15:44:02.621Z,86.64
2022-11-29T15:46:29.228Z,86.10
2022-11-29T15:48:55.599Z,83.93
2022-11-29T15:51:21.832Z,83.82
2022-11-29T15:53:48.122Z,81.22
2022-11-29T15:56:16.297Z,82.85
2022-11-29T15:58:42.550Z,83.66
2022-11-29T16:01:08.872Z,83.08
2022-11-29T16:03:35.133Z,83.81
2022-11-29T16:06:01.380Z,83.35
2022-11-29T16:08:27.701Z,83.99
2022-11-29T16:10:53.970Z,84.56
2022-11-29T16:13:20.237Z,83.55
2022-11-29T16:15:46.744Z,83.77
2022-11-29T16:18:13.019Z,83.48
2022-11-29T16:20:39.304Z,83.16
2022-11-29T16:23:05.605Z,83.88
2022-11-29T16:25:36.127Z,84.29
2022-11-29T16:28:03.721Z,84.61
2022-11-29T16:30:30.004Z,85.28
2022-11-29T16:32:56.284Z,86.39
2022-11-29T16:35:22.528Z,86.25
2022-11-29T16:37:48.814Z,85.49
2022-11-29T16:40:15.047Z,85.02
2022-11-29T16:42:41.298Z,84.83
2022-11-29T16:45:07.567Z,84.98
2022-11-29T16:47:33.802Z,85.66
2022-11-29T16:50:00.072Z,86.70
2022-11-29T16:52:26.307Z,85.09
2022-11-29T16:54:52.539Z,85.27
2022-11-29T16:57:18.789Z,85.12
2022-11-29T16:59:45.022Z,85.16
2022-11-29T17:02:11.316Z,85.19
2022-11-29T17:04:37.576Z,87.28
2022-11-29T17:07:03.797Z,86.09
2022-11-29T17:09:30.022Z,86.04
2022-11-29T17:11:56.240Z,85.54
2022-11-29T17:14:22.703Z,85.23
2022-11-29T17:16:49.086Z,84.62
2022-11-29T17:19:15.389Z,85.37
2022-11-29T17:21:41.645Z,85.05
2022-11-29T17:24:07.889Z,84.67
2022-11-29T17:26:34.130Z,83.35
2022-11-29T17:29:00.366Z,82.08
2022-11-29T17:31:26.686Z,81.14
2022-11-29T17:33:52.970Z,81.46
2022-11-29T17:36:19.213Z,79.95
2022-11-29T17:38:45.562Z,80.28
2022-11-29T17:41:11.829Z,80.84
2022-11-29T17:43:38.064Z,80.59
2022-11-29T17:46:04.434Z,80.78
2022-11-29T17:48:33.589Z,81.97
2022-11-29T17:51:00.075Z,81.45
2022-11-29T17:53:26.406Z,80.33
2022-11-29T17:55:52.688Z,80.27
2022-11-29T17:58:18.920Z,78.85
2022-11-29T18:00:45.209Z,79.25
2022-11-29T18:03:11.457Z,80.35
2022-11-29T18:05:37.677Z,80.06
2022-11-29T18:08:03.994Z,77.56
2022-11-29T18:10:30.271Z,75.48
2022-11-29T18:12:56.511Z,75.06
2022-11-29T18:15:22.813Z,75.92
2022-11-29T18:17:49.045Z,75.38
2022-11-29T18:20:15.254Z,75.25
2022-11-29T18:22:41.551Z,75.65
2022-11-29T18:25:37.055Z,77.09
2022-11-29T18:27:54.105Z,78.29
2022-11-29T18:30:20.349Z,77.92
2022-11-29T18:32:46.589Z,77.66
2022-11-29T18:35:12.874Z,77.31
2022-11-29T18:38:12.695Z,78.34
2022-11-29T18:40:25.441Z,78.37
2022-11-29T18:42:51.697Z,78.93
2022-11-29T18:45:17.973Z,79.24
2022-11-29T18:47:44.194Z,78.04
2022-11-29T18:50:10.488Z,78.02
2022-11-29T18:52:40.721Z,78.06
2022-11-29T18:55:07.142Z,77.23
2022-11-29T18:57:33.425Z,77.30
2022-11-29T18:59:59.672Z,78.14
2022-11-29T19:02:25.962Z,78.19
2022-11-29T19:04:52.249Z,77.14
2022-11-29T19:07:18.568Z,76.09
2022-11-29T19:09:44.854Z,75.82
2022-11-29T19:12:11.087Z,76.87
2022-11-29T19:14:37.308Z,78.01
2022-11-29T19:17:03.525Z,77.23
2022-11-29T19:19:29.769Z,76.68
2022-11-29T19:21:56.009Z,78.15
2022-11-29T19:24:22.248Z,79.33
2022-11-29T19:26:48.678Z,78.89
2022-11-29T19:29:14.947Z,78.76
2022-11-29T19:31:41.245Z,77.49
2022-11-29T19:34:07.516Z,76.69
2022-11-29T19:36:33.779Z,76.98
2022-11-29T19:39:00.030Z,76.47
2022-11-29T19:41:26.341Z,76.04
2022-11-29T19:43:52.594Z,74.87
2022-11-29T19:46:18.989Z,74.84
2022-11-29T19:48:45.314Z,75.67
2022-11-29T19:51:11.563Z,75.80
2022-11-29T19:53:37.818Z,76.91
2022-11-29T19:56:04.147Z,76.99
2022-11-29T19:58:30.396Z,76.66
2022-11-29T20:00:56.652Z,76.36
2022-11-29T20:03:22.872Z,76.20
2022-11-29T20:05:49.115Z,75.37
2022-11-29T20:08:21.030Z,74.51
2022-11-29T20:10:47.702Z,76.16
2022-11-29T20:13:13.960Z,76.05
2022-11-29T20:15:40.244Z,76.49
2022-11-29T20:18:06.567Z,76.86
2022-11-29T20:20:32.912Z,76.90
2022-11-29T20:22:59.170Z,76.43
2022-11-29T20:25:25.401Z,75.67
2022-11-29T20:27:51.735Z,75.94
2022-11-29T20:30:18.019Z,75.85
2022-11-29T20:32:44.258Z,77.09
2022-11-29T20:35:10.544Z,76.40
2022-11-29T20:37:36.781Z,77.54
2022-11-29T20:40:03.017Z,77.64
2022-11-29T20:42:29.316Z,76.79
2022-11-29T20:44:55.574Z,77.14
2022-11-29T20:47:21.809Z,77.03
2022-11-29T20:49:48.334Z,77.20
2022-11-29T20:52:14.791Z,76.90
2022-11-29T20:54:41.036Z,76.07
2022-11-29T20:57:07.270Z,77.25
2022-11-29T20:59:33.540Z,76.47
2022-11-29T21:01:59.832Z,75.56
2022-11-29T21:04:26.133Z,76.30
2022-11-29T21:06:52.357Z,76.45
2022-11-29T21:09:18.568Z,76.73
2022-11-29T21:11:44.813Z,75.45
2022-11-29T21:14:11.048Z,74.60
2022-11-29T21:16:37.269Z,75.18
2022-11-29T21:19:03.520Z,75.83
2022-11-29T21:21:29.775Z,76.16
2022-11-29T21:23:56.013Z,76.45
2022-11-29T21:26:22.237Z,76.35
2022-11-29T21:28:50.185Z,76.43
2022-11-29T21:31:16.501Z,76.82
2022-11-29T21:33:42.751Z,75.93
2022-11-29T21:36:08.978Z,76.09
2022-11-29T21:38:35.225Z,75.43
2022-11-29T21:41:01.489Z,75.02
2022-11-29T21:43:57.783Z,75.23
2022-11-29T21:46:14.060Z,74.93
2022-11-29T21:48:40.346Z,75.43
2022-11-29T21:51:06.589Z,76.01
2022-11-29T21:53:32.801Z,75.54
2022-11-29T21:55:59.041Z,75.16
2022-11-29T21:58:25.260Z,76.64
2022-11-29T22:00:51.482Z,76.10
2022-11-29T22:03:17.734Z,75.18
2022-11-29T22:05:43.975Z,75.82
2022-11-29T22:08:10.191Z,75.20
2022-11-29T22:10:37.149Z,76.03
2022-11-29T22:13:03.387Z,77.50
2022-11-29T22:15:29.610Z,78.15
2022-11-29T22:17:55.863Z,77.79
2022-11-29T22:20:22.080Z,76.98
2022-11-29T22:22:48.316Z,77.01
2022-11-29T22:25:14.546Z,78.13
2022-11-29T22:27:40.794Z,77.83
2022-11-29T22:30:07.028Z,77.52
2022-11-29T22:32:33.293Z,76.04
2022-11-29T22:34:59.542Z,74.92
2022-11-29T22:37:25.771Z,74.53
2022-11-29T22:39:52.030Z,74.61
2022-11-29T22:42:18.271Z,74.26
2022-11-29T22:44:44.744Z,74.87
2022-11-29T22:47:11.334Z,76.02
2022-11-29T22:49:37.581Z,76.52
2022-11-29T22:52:03.837Z,74.74
2022-11-29T22:54:30.083Z,73.72
2022-11-29T22:56:56.323Z,73.55
2022-11-29T22:59:22.540Z,74.21
2022-11-29T23:01:48.998Z,74.47
2022-11-29T23:04:15.272Z,76.05
2022-11-29T23:06:41.513Z,74.65
2022-11-29T23:09:07.817Z,73.31
2022-11-29T23:11:34.045Z,74.49
2022-11-29T23:14:00.321Z,75.47
2022-11-29T23:16:26.626Z,74.77
2022-11-29T23:18:52.926Z,74.78
2022-11-29T23:21:19.147Z,75.18
2022-11-29T23:23:45.384Z,76.60
2022-11-29T23:26:11.636Z,75.77
2022-11-29T23:28:37.871Z,75.44
2022-11-29T23:31:04.094Z,76.09
2022-11-29T23:33:30.301Z,77.21
2022-11-29T23:35:56.509Z,75.70
2022-11-29T23:38:22.732Z,76.47
2022-11-29T23:40:48.954Z,76.24
2022-11-29T23:43:15.203Z,76.34
2022-11-29T23:45:41.486Z,75.57
2022-11-29T23:48:07.734Z,75.71
2022-11-29T23:50:33.962Z,75.30
2022-11-29T23:53:00.345Z,75.12
2022-11-29T23:55:26.588Z,74.57
2022-11-29T23:57:52.844Z,74.85
